createdAt,value
2017-03-22T00:00:50.451Z,0
2017-03-22T00:01:50.267Z,0
2017-03-22T00:02:50.492Z,0
2017-03-22T00:03:50.508Z,0
2017-03-22T00:04:50.200Z,0
2017-03-22T00:05:50.247Z,0
2017-03-22T00:06:50.545Z,0
2017-03-22T00:07:50.559Z,0
2017-03-22T00:08:50.586Z,0
2017-03-22T00:09:50.592Z,0
2017-03-22T00:10:50.614Z,0
2017-03-22T00:11:50.626Z,0
2017-03-22T00:12:50.647Z,0
2017-03-22T00:13:50.664Z,0
2017-03-22T00:14:50.674Z,0
2017-03-22T00:15:50.684Z,0
2017-03-22T00:16:50.703Z,0
2017-03-22T00:17:50.721Z,0
2017-03-22T00:18:50.742Z,0
2017-03-22T00:19:50.752Z,0
2017-03-22T00:20:50.766Z,0
2017-03-22T00:21:50.791Z,0
2017-03-22T00:22:50.803Z,0
2017-03-22T00:23:50.825Z,0
2017-03-22T00:24:50.857Z,0
2017-03-22T00:25:50.843Z,0
2017-03-22T00:26:50.866Z,0
2017-03-22T00:27:50.881Z,0
2017-03-22T00:28:50.588Z,0
2017-03-22T00:29:50.914Z,0
2017-03-22T00:30:50.926Z,0
2017-03-22T00:31:50.941Z,0
2017-03-22T00:32:50.963Z,0
2017-03-22T00:33:50.984Z,0
2017-03-22T00:34:50.991Z,0
2017-03-22T00:35:51.000Z,0
2017-03-22T00:36:51.023Z,0
2017-03-22T00:37:51.041Z,0
2017-03-22T00:38:51.059Z,0
2017-03-22T00:39:51.103Z,0
2017-03-22T00:40:51.091Z,0
2017-03-22T00:41:51.097Z,0
2017-03-22T00:42:51.129Z,0
2017-03-22T00:43:51.154Z,0
2017-03-22T00:44:51.147Z,0
2017-03-22T00:45:51.160Z,0
2017-03-22T00:46:51.180Z,0
2017-03-22T00:47:51.201Z,0
2017-03-22T00:48:51.219Z,0
2017-03-22T00:49:51.232Z,0
2017-03-22T00:50:51.235Z,0
2017-03-22T00:51:51.258Z,0
2017-03-22T00:52:51.278Z,0
2017-03-22T00:53:51.289Z,0
2017-03-22T00:54:51.306Z,0
2017-03-22T00:55:51.320Z,0
2017-03-22T00:56:51.326Z,0
2017-03-22T00:57:51.363Z,0
2017-03-22T00:58:51.376Z,0
2017-03-22T00:59:51.379Z,0
2017-03-22T01:00:51.403Z,0
2017-03-22T01:01:51.103Z,0
2017-03-22T01:02:51.440Z,0
2017-03-22T01:03:51.443Z,0
2017-03-22T01:04:51.685Z,0
2017-03-22T01:05:51.478Z,0
2017-03-22T01:06:51.493Z,0
2017-03-22T01:07:51.510Z,0
2017-03-22T01:08:51.526Z,0
2017-03-22T01:09:51.537Z,0
2017-03-22T01:10:51.245Z,0
2017-03-22T01:11:51.570Z,0
2017-03-22T01:12:51.596Z,0
2017-03-22T01:13:51.601Z,0
2017-03-22T01:14:51.618Z,0
2017-03-22T01:15:51.638Z,0
2017-03-22T01:16:51.334Z,0
2017-03-22T01:17:51.674Z,0
2017-03-22T01:18:51.377Z,0
2017-03-22T01:19:51.697Z,0
2017-03-22T01:20:51.395Z,0
2017-03-22T01:21:51.417Z,0
2017-03-22T01:22:51.434Z,0
2017-03-22T01:23:51.768Z,0
2017-03-22T01:24:51.878Z,0
2017-03-22T01:25:51.875Z,0
2017-03-22T01:26:51.928Z,0
2017-03-22T01:27:51.898Z,0
2017-03-22T01:28:51.896Z,0
2017-03-22T01:29:51.907Z,0
2017-03-22T01:30:51.914Z,0
2017-03-22T01:31:51.923Z,0
2017-03-22T01:32:51.907Z,0
2017-03-22T01:33:51.916Z,0
2017-03-22T01:34:51.935Z,0
2017-03-22T01:35:51.939Z,0
2017-03-22T01:36:51.959Z,0
2017-03-22T01:37:51.982Z,0
2017-03-22T01:38:51.998Z,0
2017-03-22T01:39:52.006Z,0
2017-03-22T01:40:52.029Z,0
2017-03-22T01:41:52.047Z,0
2017-03-22T01:42:52.059Z,0
2017-03-22T01:43:52.072Z,0
2017-03-22T01:44:51.771Z,0
2017-03-22T01:45:52.233Z,0
2017-03-22T01:46:52.120Z,0
2017-03-22T01:47:52.133Z,0
2017-03-22T01:48:52.197Z,0
2017-03-22T01:49:52.168Z,0
2017-03-22T01:50:51.868Z,0
2017-03-22T01:51:52.189Z,0
2017-03-22T01:52:52.214Z,0
2017-03-22T01:53:52.325Z,0
2017-03-22T01:54:52.245Z,0
2017-03-22T01:55:52.251Z,0
2017-03-22T01:56:52.275Z,0
2017-03-22T01:57:52.290Z,0
2017-03-22T01:58:52.299Z,0
2017-03-22T01:59:52.319Z,0
2017-03-22T02:00:52.336Z,0
2017-03-22T02:01:52.347Z,0
2017-03-22T02:02:52.372Z,0
2017-03-22T02:03:52.385Z,0
2017-03-22T02:04:52.398Z,0
2017-03-22T02:05:52.414Z,0
2017-03-22T02:06:52.432Z,0
2017-03-22T02:07:52.444Z,0
2017-03-22T02:08:52.145Z,0
2017-03-22T02:09:52.686Z,0
2017-03-22T02:10:52.479Z,0
2017-03-22T02:11:52.500Z,0
2017-03-22T02:12:52.523Z,0
2017-03-22T02:13:52.547Z,0
2017-03-22T02:14:52.556Z,0
2017-03-22T02:15:52.569Z,0
2017-03-22T02:16:52.575Z,0
2017-03-22T02:17:52.605Z,0
2017-03-22T02:18:52.610Z,0
2017-03-22T02:19:52.627Z,0
2017-03-22T02:20:52.644Z,0
2017-03-22T02:21:52.661Z,0
2017-03-22T02:22:52.678Z,0
2017-03-22T02:23:52.694Z,0
2017-03-22T02:24:52.707Z,0
2017-03-22T02:25:52.711Z,0
2017-03-22T02:26:52.741Z,0
2017-03-22T02:27:52.760Z,0
2017-03-22T02:28:52.767Z,0
2017-03-22T02:29:52.787Z,0
2017-03-22T02:30:52.529Z,0
2017-03-22T02:31:52.499Z,0
2017-03-22T02:32:52.519Z,0
2017-03-22T02:33:52.529Z,0
2017-03-22T02:34:52.548Z,0
2017-03-22T02:35:52.563Z,0
2017-03-22T02:36:52.591Z,0
2017-03-22T02:37:52.901Z,0
2017-03-22T02:38:52.609Z,0
2017-03-22T02:39:52.627Z,0
2017-03-22T02:40:52.325Z,0
2017-03-22T02:41:52.660Z,0
2017-03-22T02:42:52.667Z,0
2017-03-22T02:43:52.687Z,0
2017-03-22T02:44:52.702Z,0
2017-03-22T02:45:52.714Z,0
2017-03-22T02:46:53.038Z,0
2017-03-22T02:47:53.062Z,0
2017-03-22T02:48:53.079Z,0
2017-03-22T02:49:52.779Z,0
2017-03-22T02:50:53.104Z,0
2017-03-22T02:51:53.132Z,0
2017-03-22T02:52:53.138Z,0
2017-03-22T02:53:53.150Z,0
2017-03-22T02:54:53.166Z,0
2017-03-22T02:55:53.175Z,0
2017-03-22T02:56:52.885Z,0
2017-03-22T02:57:53.217Z,0
2017-03-22T02:58:52.910Z,0
2017-03-22T02:59:52.936Z,0
2017-03-22T03:00:53.295Z,0
2017-03-22T03:01:53.304Z,0
2017-03-22T03:02:52.662Z,0
2017-03-22T03:03:52.673Z,0
2017-03-22T03:04:53.321Z,0
2017-03-22T03:05:53.330Z,0
2017-03-22T03:06:53.342Z,0
2017-03-22T03:07:53.057Z,0
2017-03-22T03:08:52.759Z,0
2017-03-22T03:09:53.514Z,0
2017-03-22T03:10:53.524Z,0
2017-03-22T03:11:53.445Z,0
2017-03-22T03:12:53.261Z,0
2017-03-22T03:13:53.580Z,0
2017-03-22T03:14:53.590Z,0
2017-03-22T03:15:53.578Z,0
2017-03-22T03:16:53.606Z,0
2017-03-22T03:17:53.754Z,0
2017-03-22T03:18:53.763Z,0
2017-03-22T03:19:53.771Z,0
2017-03-22T03:20:53.779Z,0
2017-03-22T03:21:53.788Z,0
2017-03-22T03:22:53.798Z,0
2017-03-22T03:23:53.803Z,0
2017-03-22T03:24:53.809Z,0
2017-03-22T03:25:53.719Z,0
2017-03-22T03:26:53.862Z,0
2017-03-22T03:27:53.860Z,0
2017-03-22T03:28:53.870Z,0
2017-03-22T03:29:53.889Z,0
2017-03-22T03:30:53.895Z,0
2017-03-22T03:31:53.902Z,0
2017-03-22T03:32:53.900Z,0
2017-03-22T03:33:53.876Z,0
2017-03-22T03:34:53.919Z,0
2017-03-22T03:35:53.928Z,0
2017-03-22T03:36:53.939Z,0
2017-03-22T03:37:53.624Z,0
2017-03-22T03:38:53.911Z,0
2017-03-22T03:39:53.915Z,0
2017-03-22T03:40:53.925Z,0
2017-03-22T03:41:53.719Z,0
2017-03-22T03:42:53.933Z,0
2017-03-22T03:43:53.983Z,0
2017-03-22T03:44:53.949Z,0
2017-03-22T03:45:53.956Z,0
2017-03-22T03:46:53.967Z,0
2017-03-22T03:47:53.967Z,0
2017-03-22T03:48:53.983Z,0
2017-03-22T03:49:53.996Z,0
2017-03-22T03:50:54.030Z,0
2017-03-22T03:51:54.072Z,0
2017-03-22T03:52:54.058Z,0
2017-03-22T03:53:54.321Z,0
2017-03-22T03:54:54.482Z,0
2017-03-22T03:55:54.086Z,0
2017-03-22T03:56:53.864Z,0
2017-03-22T03:57:54.116Z,0
2017-03-22T03:58:54.132Z,0
2017-03-22T03:59:54.143Z,0
2017-03-22T04:00:54.154Z,0
2017-03-22T04:01:53.933Z,0
2017-03-22T04:02:54.183Z,0
2017-03-22T04:03:54.200Z,0
2017-03-22T04:04:54.223Z,0
2017-03-22T04:05:54.229Z,0
2017-03-22T04:06:54.247Z,0
2017-03-22T04:07:54.265Z,0
2017-03-22T04:08:54.324Z,0
2017-03-22T04:09:54.300Z,0
2017-03-22T04:10:53.889Z,0
2017-03-22T04:11:54.016Z,0
2017-03-22T04:12:54.335Z,0
2017-03-22T04:13:54.359Z,0
2017-03-22T04:14:54.374Z,0
2017-03-22T04:15:54.382Z,0
2017-03-22T04:16:54.397Z,0
2017-03-22T04:17:54.419Z,0
2017-03-22T04:18:54.430Z,0
2017-03-22T04:19:54.438Z,0
2017-03-22T04:20:54.454Z,0
2017-03-22T04:21:54.466Z,0
2017-03-22T04:22:54.479Z,0
2017-03-22T04:23:54.499Z,0
2017-03-22T04:24:54.568Z,0
2017-03-22T04:25:54.532Z,0
2017-03-22T04:26:54.546Z,0
2017-03-22T04:27:54.571Z,0
2017-03-22T04:28:54.576Z,0
2017-03-22T04:29:54.591Z,0
2017-03-22T04:30:54.606Z,0
2017-03-22T04:31:54.616Z,0
2017-03-22T04:32:54.631Z,0
2017-03-22T04:33:54.654Z,0
2017-03-22T04:34:54.667Z,0
2017-03-22T04:35:54.704Z,0
2017-03-22T04:36:54.373Z,0
2017-03-22T04:37:54.724Z,0
2017-03-22T04:38:54.727Z,0
2017-03-22T04:39:54.739Z,0
2017-03-22T04:40:54.746Z,0
2017-03-22T04:41:54.766Z,0
2017-03-22T04:42:54.472Z,0
2017-03-22T04:43:54.804Z,0
2017-03-22T04:44:54.822Z,0
2017-03-22T04:45:54.821Z,0
2017-03-22T04:46:54.838Z,0
2017-03-22T04:47:54.857Z,0
2017-03-22T04:48:54.875Z,0
2017-03-22T04:49:54.882Z,0
2017-03-22T04:50:54.884Z,0
2017-03-22T04:51:54.907Z,0
2017-03-22T04:52:54.927Z,4
2017-03-22T04:53:54.938Z,4
2017-03-22T04:54:54.669Z,0
2017-03-22T04:55:54.967Z,4
2017-03-22T04:56:54.689Z,4
2017-03-22T04:57:55.064Z,8
2017-03-22T04:58:55.086Z,4
2017-03-22T04:59:55.039Z,8
2017-03-22T05:00:55.041Z,8
2017-03-22T05:01:55.054Z,8
2017-03-22T05:02:55.079Z,12
2017-03-22T05:03:55.089Z,8
2017-03-22T05:04:55.109Z,12
2017-03-22T05:05:55.125Z,12
2017-03-22T05:06:55.128Z,16
2017-03-22T05:07:55.148Z,16
2017-03-22T05:08:55.165Z,20
2017-03-22T05:09:55.171Z,20
2017-03-22T05:10:54.878Z,24
2017-03-22T05:11:55.201Z,28
2017-03-22T05:12:55.231Z,28
2017-03-22T05:13:54.927Z,28
2017-03-22T05:14:54.619Z,36
2017-03-22T05:15:55.259Z,36
2017-03-22T05:16:55.267Z,40
2017-03-22T05:17:55.331Z,40
2017-03-22T05:18:55.318Z,44
2017-03-22T05:19:55.336Z,48
2017-03-22T05:20:55.336Z,44
2017-03-22T05:21:55.350Z,48
2017-03-22T05:22:55.051Z,52
2017-03-22T05:23:55.198Z,56
2017-03-22T05:24:55.404Z,60
2017-03-22T05:25:55.097Z,64
2017-03-22T05:26:55.105Z,68
2017-03-22T05:27:55.130Z,72
2017-03-22T05:28:55.139Z,80
2017-03-22T05:29:55.150Z,80
2017-03-22T05:30:55.208Z,84
2017-03-22T05:31:55.188Z,84
2017-03-22T05:32:55.613Z,92
2017-03-22T05:33:55.212Z,92
2017-03-22T05:34:55.620Z,96
2017-03-22T05:35:55.238Z,96
2017-03-22T05:36:55.638Z,100
2017-03-22T05:37:55.639Z,104
2017-03-22T05:38:55.283Z,108
2017-03-22T05:39:55.713Z,112
2017-03-22T05:40:55.332Z,112
2017-03-22T05:41:55.326Z,120
2017-03-22T05:42:55.345Z,124
2017-03-22T05:43:55.353Z,128
2017-03-22T05:44:55.370Z,132
2017-03-22T05:45:55.758Z,136
2017-03-22T05:46:55.711Z,140
2017-03-22T05:47:55.416Z,140
2017-03-22T05:48:55.427Z,140
2017-03-22T05:49:55.851Z,144
2017-03-22T05:50:55.863Z,148
2017-03-22T05:51:55.876Z,152
2017-03-22T05:52:55.992Z,160
2017-03-22T05:53:56.000Z,164
2017-03-22T05:54:56.012Z,176
2017-03-22T05:55:56.055Z,176
2017-03-22T05:56:55.562Z,188
2017-03-22T05:57:56.028Z,208
2017-03-22T05:58:56.036Z,224
2017-03-22T05:59:56.328Z,232
2017-03-22T06:00:56.038Z,244
2017-03-22T06:01:56.063Z,252
2017-03-22T06:02:56.093Z,264
2017-03-22T06:03:56.071Z,272
2017-03-22T06:04:56.119Z,268
2017-03-22T06:05:56.124Z,256
2017-03-22T06:06:56.122Z,244
2017-03-22T06:07:56.142Z,244
2017-03-22T06:08:56.146Z,248
2017-03-22T06:09:56.153Z,260
2017-03-22T06:10:56.161Z,268
2017-03-22T06:11:56.153Z,276
2017-03-22T06:12:56.172Z,276
2017-03-22T06:13:55.862Z,280
2017-03-22T06:14:55.728Z,292
2017-03-22T06:15:56.048Z,296
2017-03-22T06:16:55.917Z,304
2017-03-22T06:17:56.176Z,316
2017-03-22T06:18:56.175Z,320
2017-03-22T06:19:55.881Z,324
2017-03-22T06:20:55.954Z,328
2017-03-22T06:21:56.023Z,336
2017-03-22T06:22:56.268Z,348
2017-03-22T06:23:56.247Z,352
2017-03-22T06:24:56.388Z,360
2017-03-22T06:25:55.844Z,360
2017-03-22T06:26:56.285Z,356
2017-03-22T06:27:56.361Z,352
2017-03-22T06:28:56.316Z,364
2017-03-22T06:29:56.332Z,364
2017-03-22T06:30:56.345Z,372
2017-03-22T06:31:56.354Z,392
2017-03-22T06:32:56.070Z,400
2017-03-22T06:33:56.395Z,404
2017-03-22T06:34:56.090Z,404
2017-03-22T06:35:56.102Z,412
2017-03-22T06:36:56.424Z,424
2017-03-22T06:37:56.466Z,432
2017-03-22T06:38:56.456Z,416
2017-03-22T06:39:56.485Z,416
2017-03-22T06:40:56.488Z,416
2017-03-22T06:41:55.872Z,400
2017-03-22T06:42:56.515Z,388
2017-03-22T06:43:56.534Z,372
2017-03-22T06:44:56.552Z,352
2017-03-22T06:45:56.569Z,324
2017-03-22T06:46:56.271Z,312
2017-03-22T06:47:56.597Z,316
2017-03-22T06:48:56.607Z,336
2017-03-22T06:49:56.627Z,340
2017-03-22T06:50:56.323Z,324
2017-03-22T06:51:56.662Z,304
2017-03-22T06:52:56.677Z,300
2017-03-22T06:53:56.689Z,300
2017-03-22T06:54:56.687Z,312
2017-03-22T06:55:56.712Z,316
2017-03-22T06:56:56.721Z,324
2017-03-22T06:57:56.740Z,332
2017-03-22T06:58:56.757Z,344
2017-03-22T06:59:56.762Z,352
2017-03-22T07:00:56.778Z,348
2017-03-22T07:01:56.480Z,348
2017-03-22T07:02:56.807Z,360
2017-03-22T07:03:56.823Z,352
2017-03-22T07:04:56.838Z,372
2017-03-22T07:05:56.845Z,380
2017-03-22T07:06:56.860Z,416
2017-03-22T07:07:57.062Z,492
2017-03-22T07:08:56.891Z,596
2017-03-22T07:09:56.904Z,712
2017-03-22T07:10:56.925Z,768
2017-03-22T07:11:56.935Z,816
2017-03-22T07:12:56.948Z,852
2017-03-22T07:13:57.099Z,876
2017-03-22T07:14:56.669Z,848
2017-03-22T07:15:56.994Z,820
2017-03-22T07:16:56.693Z,792
2017-03-22T07:17:57.032Z,756
2017-03-22T07:18:57.041Z,724
2017-03-22T07:19:57.062Z,724
2017-03-22T07:20:57.164Z,724
2017-03-22T07:21:57.074Z,724
2017-03-22T07:22:57.090Z,728
2017-03-22T07:23:57.288Z,740
2017-03-22T07:24:57.192Z,740
2017-03-22T07:25:57.237Z,740
2017-03-22T07:26:57.222Z,780
2017-03-22T07:27:57.255Z,824
2017-03-22T07:28:57.254Z,788
2017-03-22T07:29:57.263Z,760
2017-03-22T07:30:57.210Z,744
2017-03-22T07:31:57.017Z,728
2017-03-22T07:32:57.239Z,684
2017-03-22T07:33:57.259Z,712
2017-03-22T07:34:57.277Z,812
2017-03-22T07:35:57.277Z,884
2017-03-22T07:36:57.297Z,880
2017-03-22T07:37:57.322Z,800
2017-03-22T07:38:57.336Z,716
2017-03-22T07:39:57.346Z,628
2017-03-22T07:40:57.365Z,636
2017-03-22T07:41:57.108Z,672
2017-03-22T07:42:57.396Z,688
2017-03-22T07:43:57.408Z,756
2017-03-22T07:44:57.425Z,820
2017-03-22T07:45:57.486Z,848
2017-03-22T07:46:57.470Z,828
2017-03-22T07:47:57.478Z,780
2017-03-22T07:48:57.175Z,708
2017-03-22T07:49:57.497Z,676
2017-03-22T07:50:57.508Z,748
2017-03-22T07:51:57.517Z,808
2017-03-22T07:52:57.547Z,808
2017-03-22T07:53:57.555Z,860
2017-03-22T07:54:57.580Z,896
2017-03-22T07:55:57.701Z,960
2017-03-22T07:56:57.596Z,1040
2017-03-22T07:57:57.615Z,1040
2017-03-22T07:58:57.637Z,992
2017-03-22T07:59:57.768Z,908
2017-03-22T08:00:57.544Z,856
2017-03-22T08:01:57.717Z,876
2017-03-22T08:02:57.381Z,848
2017-03-22T08:03:57.386Z,768
2017-03-22T08:04:57.722Z,680
2017-03-22T08:05:57.731Z,704
2017-03-22T08:06:57.747Z,680
2017-03-22T08:07:57.458Z,624
2017-03-22T08:08:58.005Z,608
2017-03-22T08:09:57.803Z,648
2017-03-22T08:10:57.844Z,696
2017-03-22T08:11:57.821Z,700
2017-03-22T08:12:57.935Z,744
2017-03-22T08:13:57.855Z,760
2017-03-22T08:14:57.875Z,768
2017-03-22T08:15:58.003Z,792
2017-03-22T08:16:58.012Z,792
2017-03-22T08:17:57.921Z,812
2017-03-22T08:18:57.931Z,868
2017-03-22T08:19:57.949Z,944
2017-03-22T08:20:57.981Z,1036
2017-03-22T08:21:57.976Z,972
2017-03-22T08:22:57.995Z,872
2017-03-22T08:23:58.015Z,768
2017-03-22T08:24:58.030Z,700
2017-03-22T08:25:57.485Z,680
2017-03-22T08:26:58.050Z,736
2017-03-22T08:27:57.762Z,840
2017-03-22T08:28:58.091Z,972
2017-03-22T08:29:57.795Z,1196
2017-03-22T08:30:57.901Z,1444
2017-03-22T08:31:57.816Z,1484
2017-03-22T08:32:58.271Z,1424
2017-03-22T08:33:58.166Z,1280
2017-03-22T08:34:58.177Z,1244
2017-03-22T08:35:58.187Z,1356
2017-03-22T08:36:58.212Z,1492
2017-03-22T08:37:57.915Z,1516
2017-03-22T08:38:58.280Z,1536
2017-03-22T08:39:58.055Z,1524
2017-03-22T08:40:57.957Z,1560
2017-03-22T08:41:58.006Z,1628
2017-03-22T08:42:57.991Z,1588
2017-03-22T08:43:58.007Z,1536
2017-03-22T08:44:58.028Z,1488
2017-03-22T08:45:58.078Z,1460
2017-03-22T08:46:58.053Z,1408
2017-03-22T08:47:58.381Z,1396
2017-03-22T08:48:58.555Z,1416
2017-03-22T08:49:58.433Z,1412
2017-03-22T08:50:58.310Z,1372
2017-03-22T08:51:58.444Z,1388
2017-03-22T08:52:58.457Z,1432
2017-03-22T08:53:58.622Z,1384
2017-03-22T08:54:58.190Z,1344
2017-03-22T08:55:58.510Z,1340
2017-03-22T08:56:58.214Z,1380
2017-03-22T08:57:57.918Z,1368
2017-03-22T08:58:58.569Z,1324
2017-03-22T08:59:58.574Z,1312
2017-03-22T09:00:58.595Z,1260
2017-03-22T09:01:58.860Z,1184
2017-03-22T09:02:58.611Z,1100
2017-03-22T09:03:58.636Z,1040
2017-03-22T09:04:58.653Z,948
2017-03-22T09:05:58.673Z,912
2017-03-22T09:06:58.783Z,944
2017-03-22T09:07:58.700Z,1048
2017-03-22T09:08:58.755Z,1180
2017-03-22T09:09:58.760Z,1368
2017-03-22T09:10:58.768Z,1540
2017-03-22T09:11:58.896Z,1652
2017-03-22T09:12:58.783Z,1708
2017-03-22T09:13:58.798Z,1740
2017-03-22T09:14:58.599Z,1752
2017-03-22T09:15:58.535Z,1788
2017-03-22T09:16:58.975Z,1856
2017-03-22T09:17:58.988Z,1952
2017-03-22T09:18:58.572Z,2056
2017-03-22T09:19:58.903Z,2140
2017-03-22T09:20:58.608Z,2184
2017-03-22T09:21:58.934Z,2200
2017-03-22T09:22:58.949Z,2176
2017-03-22T09:23:58.971Z,2144
2017-03-22T09:24:58.981Z,2076
2017-03-22T09:25:59.015Z,2040
2017-03-22T09:26:59.018Z,1992
2017-03-22T09:27:59.031Z,1980
2017-03-22T09:28:59.060Z,2044
2017-03-22T09:29:59.074Z,2140
2017-03-22T09:30:59.100Z,2196
2017-03-22T09:31:59.139Z,2224
2017-03-22T09:32:59.125Z,2204
2017-03-22T09:33:59.147Z,2124
2017-03-22T09:34:59.155Z,2028
2017-03-22T09:35:59.175Z,1940
2017-03-22T09:36:59.187Z,1856
2017-03-22T09:37:59.209Z,1788
2017-03-22T09:38:59.219Z,1728
2017-03-22T09:39:59.240Z,1676
2017-03-22T09:40:59.253Z,1628
2017-03-22T09:41:59.285Z,1592
2017-03-22T09:42:59.294Z,1564
2017-03-22T09:43:59.309Z,1544
2017-03-22T09:44:59.326Z,1520
2017-03-22T09:45:59.354Z,1540
2017-03-22T09:46:59.393Z,1544
2017-03-22T09:47:59.385Z,1556
2017-03-22T09:48:59.395Z,1540
2017-03-22T09:49:58.793Z,1536
2017-03-22T09:50:59.123Z,1540
2017-03-22T09:51:59.141Z,1548
2017-03-22T09:52:59.506Z,1564
2017-03-22T09:53:59.172Z,1608
2017-03-22T09:54:59.509Z,1692
2017-03-22T09:55:59.518Z,1792
2017-03-22T09:56:59.539Z,1884
2017-03-22T09:57:59.556Z,1944
2017-03-22T09:58:59.266Z,1980
2017-03-22T09:59:59.596Z,2008
2017-03-22T10:00:59.297Z,2100
2017-03-22T10:01:59.628Z,2192
2017-03-22T10:02:59.646Z,2276
2017-03-22T10:03:59.350Z,2340
2017-03-22T10:04:59.365Z,2284
2017-03-22T10:05:59.712Z,2160
2017-03-22T10:06:59.413Z,2200
2017-03-22T10:07:59.738Z,2164
2017-03-22T10:08:59.763Z,2156
2017-03-22T10:09:59.775Z,2104
2017-03-22T10:10:59.791Z,2112
2017-03-22T10:11:59.813Z,2196
2017-03-22T10:12:59.827Z,2272
2017-03-22T10:13:59.910Z,2412
2017-03-22T10:14:59.990Z,2416
2017-03-22T10:15:59.892Z,2324
2017-03-22T10:16:59.899Z,2232
2017-03-22T10:17:59.926Z,2312
2017-03-22T10:18:59.954Z,2392
2017-03-22T10:19:59.650Z,2424
2017-03-22T10:20:59.980Z,2424
2017-03-22T10:21:59.994Z,2428
2017-03-22T10:23:00.017Z,2376
2017-03-22T10:24:00.031Z,2228
2017-03-22T10:25:00.048Z,2168
2017-03-22T10:26:00.076Z,2160
2017-03-22T10:27:00.096Z,1968
2017-03-22T10:27:59.890Z,2020
2017-03-22T10:29:00.225Z,2132
2017-03-22T10:30:00.225Z,2252
2017-03-22T10:31:00.239Z,2280
2017-03-22T10:32:00.245Z,2316
2017-03-22T10:33:00.300Z,2372
2017-03-22T10:33:59.905Z,2456
2017-03-22T10:35:00.038Z,2504
2017-03-22T10:36:00.365Z,2456
2017-03-22T10:37:00.367Z,2436
2017-03-22T10:38:00.400Z,2448
2017-03-22T10:39:00.398Z,2468
2017-03-22T10:40:00.406Z,2460
2017-03-22T10:41:00.348Z,2348
2017-03-22T10:42:00.504Z,2188
2017-03-22T10:43:00.483Z,2152
2017-03-22T10:44:00.501Z,2228
2017-03-22T10:45:00.632Z,2284
2017-03-22T10:46:00.690Z,2136
2017-03-22T10:47:00.654Z,2144
2017-03-22T10:48:00.206Z,2248
2017-03-22T10:49:00.662Z,2500
2017-03-22T10:50:00.668Z,2644
2017-03-22T10:51:00.676Z,2624
2017-03-22T10:52:00.692Z,2396
2017-03-22T10:53:00.687Z,2268
2017-03-22T10:54:00.700Z,2112
2017-03-22T10:55:00.413Z,1960
2017-03-22T10:56:00.538Z,2004
2017-03-22T10:57:00.820Z,2352
2017-03-22T10:58:00.522Z,2488
2017-03-22T10:59:00.802Z,2240
2017-03-22T11:00:00.197Z,2000
2017-03-22T11:01:00.835Z,2184
2017-03-22T11:02:00.850Z,2504
2017-03-22T11:03:00.542Z,2740
2017-03-22T11:04:00.600Z,2704
2017-03-22T11:05:00.813Z,2748
2017-03-22T11:06:00.835Z,2728
2017-03-22T11:07:00.846Z,2736
2017-03-22T11:08:00.567Z,2796
2017-03-22T11:09:00.585Z,2864
2017-03-22T11:10:00.911Z,2932
2017-03-22T11:11:00.630Z,2924
2017-03-22T11:12:00.947Z,2816
2017-03-22T11:13:00.996Z,2732
2017-03-22T11:14:00.986Z,2692
2017-03-22T11:15:01.003Z,2700
2017-03-22T11:16:01.214Z,2684
2017-03-22T11:17:01.037Z,2672
2017-03-22T11:18:01.066Z,2620
2017-03-22T11:19:01.086Z,2604
2017-03-22T11:20:00.781Z,2572
2017-03-22T11:21:00.805Z,2612
2017-03-22T11:22:00.827Z,2652
2017-03-22T11:23:01.162Z,2620
2017-03-22T11:24:01.183Z,2596
2017-03-22T11:25:01.198Z,2620
2017-03-22T11:26:01.220Z,2648
2017-03-22T11:27:01.238Z,2700
2017-03-22T11:28:01.259Z,2708
2017-03-22T11:29:01.280Z,2700
2017-03-22T11:30:00.665Z,2716
2017-03-22T11:31:00.685Z,2672
2017-03-22T11:32:01.021Z,2600
2017-03-22T11:33:01.355Z,2660
2017-03-22T11:34:01.055Z,2644
2017-03-22T11:35:01.082Z,2532
2017-03-22T11:36:01.103Z,2392
2017-03-22T11:37:01.153Z,2988
2017-03-22T11:38:01.472Z,2768
2017-03-22T11:39:01.475Z,2472
2017-03-22T11:40:01.493Z,2764
2017-03-22T11:41:01.192Z,2460
2017-03-22T11:42:01.220Z,2168
2017-03-22T11:43:01.280Z,2208
2017-03-22T11:44:01.571Z,2132
2017-03-22T11:45:01.589Z,2120
2017-03-22T11:46:01.606Z,2284
2017-03-22T11:47:01.635Z,2188
2017-03-22T11:48:01.650Z,2080
2017-03-22T11:49:01.671Z,2200
2017-03-22T11:50:01.689Z,2360
2017-03-22T11:51:01.557Z,2292
2017-03-22T11:52:01.734Z,2408
2017-03-22T11:53:01.749Z,2612
2017-03-22T11:54:01.318Z,2688
2017-03-22T11:55:01.784Z,3004
2017-03-22T11:56:01.501Z,2808
2017-03-22T11:57:01.839Z,2804
2017-03-22T11:58:01.304Z,2868
2017-03-22T11:59:01.554Z,2696
2017-03-22T12:00:01.888Z,2360
2017-03-22T12:01:01.902Z,2140
2017-03-22T12:02:01.618Z,2668
2017-03-22T12:03:01.952Z,2552
2017-03-22T12:04:01.963Z,2528
2017-03-22T12:05:01.990Z,2100
2017-03-22T12:06:01.714Z,1784
2017-03-22T12:07:02.029Z,1732
2017-03-22T12:08:02.041Z,1776
2017-03-22T12:09:01.466Z,2080
2017-03-22T12:10:02.084Z,2388
2017-03-22T12:11:02.118Z,2280
2017-03-22T12:12:02.135Z,2156
2017-03-22T12:13:02.174Z,1968
2017-03-22T12:14:02.169Z,2052
2017-03-22T12:15:02.192Z,2172
2017-03-22T12:16:01.897Z,2348
2017-03-22T12:17:01.914Z,2240
2017-03-22T12:18:01.932Z,1916
2017-03-22T12:19:02.265Z,1920
2017-03-22T12:20:01.984Z,1972
2017-03-22T12:21:02.012Z,2152
2017-03-22T12:22:02.342Z,2092
2017-03-22T12:23:02.047Z,2212
2017-03-22T12:24:02.058Z,2240
2017-03-22T12:25:02.079Z,2276
2017-03-22T12:26:02.404Z,2196
2017-03-22T12:27:02.425Z,2240
2017-03-22T12:28:02.444Z,2404
2017-03-22T12:29:02.156Z,2380
2017-03-22T12:30:02.493Z,2288
2017-03-22T12:31:02.192Z,2088
2017-03-22T12:32:02.536Z,2088
2017-03-22T12:33:02.560Z,2132
2017-03-22T12:34:01.945Z,2064
2017-03-22T12:35:01.969Z,1956
2017-03-22T12:36:01.986Z,1816
2017-03-22T12:37:02.012Z,1864
2017-03-22T12:38:02.023Z,1896
2017-03-22T12:39:02.683Z,1880
2017-03-22T12:40:02.085Z,1884
2017-03-22T12:41:02.394Z,1824
2017-03-22T12:42:02.445Z,1756
2017-03-22T12:43:02.795Z,1564
2017-03-22T12:44:02.149Z,1380
2017-03-22T12:45:02.792Z,1376
2017-03-22T12:46:02.501Z,1484
2017-03-22T12:47:02.832Z,1528
2017-03-22T12:48:02.861Z,1552
2017-03-22T12:49:02.246Z,1636
2017-03-22T12:50:02.601Z,1788
2017-03-22T12:51:02.918Z,1976
2017-03-22T12:52:02.750Z,2152
2017-03-22T12:53:03.053Z,2368
2017-03-22T12:54:03.061Z,2444
2017-03-22T12:55:02.682Z,2196
2017-03-22T12:56:02.708Z,2208
2017-03-22T12:57:03.075Z,2200
2017-03-22T12:58:02.782Z,2212
2017-03-22T12:59:02.778Z,2208
2017-03-22T13:00:03.111Z,2060
2017-03-22T13:01:03.237Z,2096
2017-03-22T13:02:03.247Z,2156
2017-03-22T13:03:03.179Z,1992
2017-03-22T13:04:03.187Z,1668
2017-03-22T13:05:03.002Z,1548
2017-03-22T13:06:03.337Z,1660
2017-03-22T13:07:03.331Z,1636
2017-03-22T13:08:03.073Z,1628
2017-03-22T13:09:03.201Z,1608
2017-03-22T13:10:03.193Z,1628
2017-03-22T13:11:02.692Z,1480
2017-03-22T13:12:03.225Z,1248
2017-03-22T13:13:02.918Z,1432
2017-03-22T13:14:03.114Z,1888
2017-03-22T13:15:03.109Z,2440
2017-03-22T13:16:03.595Z,2656
2017-03-22T13:17:03.171Z,2548
2017-03-22T13:18:03.621Z,2356
2017-03-22T13:19:03.310Z,2248
2017-03-22T13:20:03.319Z,2248
2017-03-22T13:21:03.322Z,2344
2017-03-22T13:22:03.639Z,2428
2017-03-22T13:23:03.050Z,2452
2017-03-22T13:24:03.347Z,2396
2017-03-22T13:25:03.694Z,2384
2017-03-22T13:26:03.410Z,2436
2017-03-22T13:27:03.741Z,2472
2017-03-22T13:28:03.374Z,2412
2017-03-22T13:29:03.686Z,2488
2017-03-22T13:30:03.400Z,2664
2017-03-22T13:31:03.727Z,2756
2017-03-22T13:32:03.754Z,2728
2017-03-22T13:33:03.771Z,2564
2017-03-22T13:34:03.486Z,2492
2017-03-22T13:35:03.498Z,2564
2017-03-22T13:36:03.534Z,2760
2017-03-22T13:37:03.862Z,2860
2017-03-22T13:38:03.250Z,2820
2017-03-22T13:39:03.271Z,2776
2017-03-22T13:40:03.707Z,2700
2017-03-22T13:41:03.311Z,2544
2017-03-22T13:42:03.957Z,2392
2017-03-22T13:43:03.355Z,2364
2017-03-22T13:44:03.690Z,2452
2017-03-22T13:45:04.015Z,2464
2017-03-22T13:46:04.039Z,2612
2017-03-22T13:47:04.064Z,2912
2017-03-22T13:48:03.773Z,2932
2017-03-22T13:49:03.785Z,2856
2017-03-22T13:50:03.531Z,2776
2017-03-22T13:51:03.829Z,2704
2017-03-22T13:52:03.849Z,2616
2017-03-22T13:53:03.866Z,2440
2017-03-22T13:54:04.205Z,2244
2017-03-22T13:55:04.229Z,2544
2017-03-22T13:56:03.955Z,2780
2017-03-22T13:57:04.267Z,2788